sensor_id;sensor_type;location;lat;lon;timestamp;temperature;humidity
11385;DHT22;5747;56.748;13.882;2023-08-08T00:01:34;12.10;99.90
11385;DHT22;5747;56.748;13.882;2023-08-08T00:04:02;12.10;99.90
11385;DHT22;5747;56.748;13.882;2023-08-08T00:06:32;12.10;99.90
11385;DHT22;5747;56.748;13.882;2023-08-08T00:09:00;12.10;99.90
11385;DHT22;5747;56.748;13.882;2023-08-08T00:11:28;12.00;99.90
11385;DHT22;5747;56.748;13.882;2023-08-08T00:13:57;12.00;99.90
11385;DHT22;5747;56.748;13.882;2023-08-08T00:16:25;12.00;99.90
11385;DHT22;5747;56.748;13.882;2023-08-08T00:18:53;12.00;99.90
11385;DHT22;5747;56.748;13.882;2023-08-08T00:21:21;12.00;99.90
11385;DHT22;5747;56.748;13.882;2023-08-08T00:23:51;12.00;99.90
11385;DHT22;5747;56.748;13.882;2023-08-08T00:26:19;12.00;99.90
11385;DHT22;5747;56.748;13.882;2023-08-08T00:28:47;12.00;99.90
11385;DHT22;5747;56.748;13.882;2023-08-08T00:31:18;11.90;99.90
11385;DHT22;5747;56.748;13.882;2023-08-08T00:33:47;11.90;99.90
11385;DHT22;5747;56.748;13.882;2023-08-08T00:36:15;11.80;99.90
11385;DHT22;5747;56.748;13.882;2023-08-08T00:38:43;11.90;99.90
11385;DHT22;5747;56.748;13.882;2023-08-08T00:41:13;11.80;99.90
11385;DHT22;5747;56.748;13.882;2023-08-08T00:43:42;11.80;99.90
11385;DHT22;5747;56.748;13.882;2023-08-08T00:46:10;11.80;99.90
11385;DHT22;5747;56.748;13.882;2023-08-08T00:48:39;11.70;99.90
11385;DHT22;5747;56.748;13.882;2023-08-08T00:51:07;11.70;99.90
11385;DHT22;5747;56.748;13.882;2023-08-08T00:53:35;11.70;99.90
11385;DHT22;5747;56.748;13.882;2023-08-08T00:56:04;11.60;99.90
11385;DHT22;5747;56.748;13.882;2023-08-08T00:58:34;11.60;99.90
11385;DHT22;5747;56.748;13.882;2023-08-08T01:01:02;11.60;99.90
11385;DHT22;5747;56.748;13.882;2023-08-08T01:03:30;11.60;99.90
11385;DHT22;5747;56.748;13.882;2023-08-08T01:06:02;11.70;99.90
11385;DHT22;5747;56.748;13.882;2023-08-08T01:08:37;11.60;99.90
11385;DHT22;5747;56.748;13.882;2023-08-08T01:11:07;11.60;99.90
11385;DHT22;5747;56.748;13.882;2023-08-08T01:13:37;11.60;99.90
11385;DHT22;5747;56.748;13.882;2023-08-08T01:16:07;11.60;99.90
11385;DHT22;5747;56.748;13.882;2023-08-08T01:18:36;11.60;99.90
11385;DHT22;5747;56.748;13.882;2023-08-08T01:21:05;11.50;99.90
11385;DHT22;5747;56.748;13.882;2023-08-08T01:23:41;11.50;99.90
11385;DHT22;5747;56.748;13.882;2023-08-08T01:26:12;11.50;99.90
11385;DHT22;5747;56.748;13.882;2023-08-08T01:28:42;11.50;99.90
11385;DHT22;5747;56.748;13.882;2023-08-08T01:31:10;11.50;99.90
11385;DHT22;5747;56.748;13.882;2023-08-08T01:33:40;11.50;99.90
11385;DHT22;5747;56.748;13.882;2023-08-08T01:36:13;11.40;99.90
11385;DHT22;5747;56.748;13.882;2023-08-08T01:38:47;11.40;99.90
11385;DHT22;5747;56.748;13.882;2023-08-08T01:41:18;11.40;99.90
11385;DHT22;5747;56.748;13.882;2023-08-08T01:43:48;11.40;99.90
11385;DHT22;5747;56.748;13.882;2023-08-08T01:46:17;11.40;99.90
11385;DHT22;5747;56.748;13.882;2023-08-08T01:48:45;11.40;99.90
11385;DHT22;5747;56.748;13.882;2023-08-08T01:51:14;11.40;99.90
11385;DHT22;5747;56.748;13.882;2023-08-08T01:53:43;11.40;99.90
11385;DHT22;5747;56.748;13.882;2023-08-08T01:56:11;11.40;99.90
11385;DHT22;5747;56.748;13.882;2023-08-08T01:58:40;11.30;99.90
11385;DHT22;5747;56.748;13.882;2023-08-08T02:01:08;11.40;99.90
11385;DHT22;5747;56.748;13.882;2023-08-08T02:03:36;11.30;99.90
11385;DHT22;5747;56.748;13.882;2023-08-08T02:06:05;11.30;99.90
11385;DHT22;5747;56.748;13.882;2023-08-08T02:08:33;11.30;99.90
11385;DHT22;5747;56.748;13.882;2023-08-08T02:11:02;11.30;99.90
11385;DHT22;5747;56.748;13.882;2023-08-08T02:13:30;11.30;99.90
11385;DHT22;5747;56.748;13.882;2023-08-08T02:15:59;11.30;99.90
11385;DHT22;5747;56.748;13.882;2023-08-08T02:18:27;11.30;99.90
11385;DHT22;5747;56.748;13.882;2023-08-08T02:20:56;11.20;99.90
11385;DHT22;5747;56.748;13.882;2023-08-08T02:23:24;11.30;99.90
11385;DHT22;5747;56.748;13.882;2023-08-08T02:25:53;11.20;99.90
11385;DHT22;5747;56.748;13.882;2023-08-08T02:28:21;11.20;99.90
11385;DHT22;5747;56.748;13.882;2023-08-08T02:30:49;11.20;99.90
11385;DHT22;5747;56.748;13.882;2023-08-08T02:33:19;11.20;99.90
11385;DHT22;5747;56.748;13.882;2023-08-08T02:35:47;11.20;99.90
11385;DHT22;5747;56.748;13.882;2023-08-08T02:38:15;11.10;99.90
11385;DHT22;5747;56.748;13.882;2023-08-08T02:40:43;11.10;99.90
11385;DHT22;5747;56.748;13.882;2023-08-08T02:43:11;11.10;99.90
11385;DHT22;5747;56.748;13.882;2023-08-08T02:45:39;11.10;99.90
11385;DHT22;5747;56.748;13.882;2023-08-08T02:48:08;11.10;99.90
11385;DHT22;5747;56.748;13.882;2023-08-08T02:50:38;11.10;99.90
11385;DHT22;5747;56.748;13.882;2023-08-08T02:53:07;11.10;99.90
11385;DHT22;5747;56.748;13.882;2023-08-08T02:55:41;11.10;99.90
11385;DHT22;5747;56.748;13.882;2023-08-08T02:58:09;11.10;99.90
11385;DHT22;5747;56.748;13.882;2023-08-08T03:00:37;11.10;99.90
11385;DHT22;5747;56.748;13.882;2023-08-08T03:03:09;11.10;99.90
11385;DHT22;5747;56.748;13.882;2023-08-08T03:05:40;11.00;99.90
11385;DHT22;5747;56.748;13.882;2023-08-08T03:08:08;11.00;99.90
11385;DHT22;5747;56.748;13.882;2023-08-08T03:10:36;11.00;99.90
11385;DHT22;5747;56.748;13.882;2023-08-08T03:13:05;11.00;99.90
11385;DHT22;5747;56.748;13.882;2023-08-08T03:15:33;11.00;99.90
11385;DHT22;5747;56.748;13.882;2023-08-08T03:18:05;11.00;99.90
11385;DHT22;5747;56.748;13.882;2023-08-08T03:20:34;11.00;99.90
11385;DHT22;5747;56.748;13.882;2023-08-08T03:23:04;11.00;99.90
11385;DHT22;5747;56.748;13.882;2023-08-08T03:25:33;10.90;99.90
11385;DHT22;5747;56.748;13.882;2023-08-08T03:28:02;10.90;99.90
11385;DHT22;5747;56.748;13.882;2023-08-08T03:30:31;10.90;99.90
11385;DHT22;5747;56.748;13.882;2023-08-08T03:32:59;11.00;99.90
11385;DHT22;5747;56.748;13.882;2023-08-08T03:35:28;10.90;99.90
11385;DHT22;5747;56.748;13.882;2023-08-08T03:37:57;10.90;99.90
11385;DHT22;5747;56.748;13.882;2023-08-08T03:40:26;10.90;99.90
11385;DHT22;5747;56.748;13.882;2023-08-08T03:42:54;10.90;99.90
11385;DHT22;5747;56.748;13.882;2023-08-08T03:45:23;10.90;99.90
11385;DHT22;5747;56.748;13.882;2023-08-08T03:47:52;10.90;99.90
11385;DHT22;5747;56.748;13.882;2023-08-08T03:50:20;10.90;99.90
11385;DHT22;5747;56.748;13.882;2023-08-08T03:52:48;10.90;99.90
11385;DHT22;5747;56.748;13.882;2023-08-08T03:55:17;10.90;99.90
11385;DHT22;5747;56.748;13.882;2023-08-08T03:57:47;10.90;99.90
11385;DHT22;5747;56.748;13.882;2023-08-08T04:00:15;10.90;99.90
11385;DHT22;5747;56.748;13.882;2023-08-08T04:02:43;10.90;99.90
11385;DHT22;5747;56.748;13.882;2023-08-08T04:05:12;10.90;99.90
11385;DHT22;5747;56.748;13.882;2023-08-08T04:07:40;10.90;99.90
11385;DHT22;5747;56.748;13.882;2023-08-08T04:10:08;10.90;99.90
11385;DHT22;5747;56.748;13.882;2023-08-08T04:12:37;10.90;99.90
11385;DHT22;5747;56.748;13.882;2023-08-08T04:15:07;10.90;99.90
11385;DHT22;5747;56.748;13.882;2023-08-08T04:17:36;10.90;99.90
11385;DHT22;5747;56.748;13.882;2023-08-08T04:20:05;10.90;99.90
11385;DHT22;5747;56.748;13.882;2023-08-08T04:22:33;10.90;99.90
11385;DHT22;5747;56.748;13.882;2023-08-08T04:25:04;10.90;99.90
11385;DHT22;5747;56.748;13.882;2023-08-08T04:27:33;10.90;99.90
11385;DHT22;5747;56.748;13.882;2023-08-08T04:30:01;10.90;99.90
11385;DHT22;5747;56.748;13.882;2023-08-08T04:32:31;10.90;99.90
11385;DHT22;5747;56.748;13.882;2023-08-08T04:34:59;10.80;99.90
11385;DHT22;5747;56.748;13.882;2023-08-08T04:37:27;10.80;99.90
11385;DHT22;5747;56.748;13.882;2023-08-08T04:39:55;10.80;99.90
11385;DHT22;5747;56.748;13.882;2023-08-08T04:42:24;10.80;99.90
11385;DHT22;5747;56.748;13.882;2023-08-08T04:44:52;10.80;99.90
11385;DHT22;5747;56.748;13.882;2023-08-08T04:47:20;10.80;99.90
11385;DHT22;5747;56.748;13.882;2023-08-08T04:49:50;10.80;99.90
11385;DHT22;5747;56.748;13.882;2023-08-08T04:52:18;10.80;99.90
11385;DHT22;5747;56.748;13.882;2023-08-08T04:54:46;10.80;99.90
11385;DHT22;5747;56.748;13.882;2023-08-08T04:57:14;10.80;99.90
11385;DHT22;5747;56.748;13.882;2023-08-08T04:59:42;10.80;99.90
11385;DHT22;5747;56.748;13.882;2023-08-08T05:02:10;10.80;99.90
11385;DHT22;5747;56.748;13.882;2023-08-08T05:04:39;10.80;99.90
11385;DHT22;5747;56.748;13.882;2023-08-08T05:07:08;10.80;99.90
11385;DHT22;5747;56.748;13.882;2023-08-08T05:09:36;10.80;99.90
11385;DHT22;5747;56.748;13.882;2023-08-08T05:12:05;10.80;99.90
11385;DHT22;5747;56.748;13.882;2023-08-08T05:14:33;10.80;99.90
11385;DHT22;5747;56.748;13.882;2023-08-08T05:17:02;10.80;99.90
11385;DHT22;5747;56.748;13.882;2023-08-08T05:19:30;10.90;99.90
11385;DHT22;5747;56.748;13.882;2023-08-08T05:21:58;10.80;99.90
11385;DHT22;5747;56.748;13.882;2023-08-08T05:24:29;10.80;99.90
11385;DHT22;5747;56.748;13.882;2023-08-08T05:26:57;10.90;99.90
11385;DHT22;5747;56.748;13.882;2023-08-08T05:29:26;10.80;99.90
11385;DHT22;5747;56.748;13.882;2023-08-08T05:31:54;10.80;99.90
11385;DHT22;5747;56.748;13.882;2023-08-08T05:34:23;10.80;99.90
11385;DHT22;5747;56.748;13.882;2023-08-08T05:36:52;10.80;99.90
11385;DHT22;5747;56.748;13.882;2023-08-08T05:39:41;10.80;99.90
11385;DHT22;5747;56.748;13.882;2023-08-08T05:42:09;10.80;99.90
11385;DHT22;5747;56.748;13.882;2023-08-08T05:44:37;10.80;99.90
11385;DHT22;5747;56.748;13.882;2023-08-08T05:47:06;10.80;99.90
11385;DHT22;5747;56.748;13.882;2023-08-08T05:49:34;10.90;99.90
11385;DHT22;5747;56.748;13.882;2023-08-08T05:52:03;10.90;99.90
11385;DHT22;5747;56.748;13.882;2023-08-08T05:54:31;10.90;99.90
11385;DHT22;5747;56.748;13.882;2023-08-08T05:57:01;10.90;99.90
11385;DHT22;5747;56.748;13.882;2023-08-08T05:59:30;10.90;99.90
11385;DHT22;5747;56.748;13.882;2023-08-08T06:01:58;10.90;99.90
11385;DHT22;5747;56.748;13.882;2023-08-08T06:04:27;10.80;99.90
11385;DHT22;5747;56.748;13.882;2023-08-08T06:06:55;10.80;99.90
11385;DHT22;5747;56.748;13.882;2023-08-08T06:09:24;10.80;99.90
11385;DHT22;5747;56.748;13.882;2023-08-08T06:11:53;10.80;99.90
11385;DHT22;5747;56.748;13.882;2023-08-08T06:14:22;10.90;99.90
11385;DHT22;5747;56.748;13.882;2023-08-08T06:16:51;10.90;99.90
11385;DHT22;5747;56.748;13.882;2023-08-08T06:19:19;10.80;99.90
11385;DHT22;5747;56.748;13.882;2023-08-08T06:21:47;10.90;99.90
11385;DHT22;5747;56.748;13.882;2023-08-08T06:24:16;10.80;99.90
11385;DHT22;5747;56.748;13.882;2023-08-08T06:26:44;10.80;99.90
11385;DHT22;5747;56.748;13.882;2023-08-08T06:29:12;10.80;99.90
11385;DHT22;5747;56.748;13.882;2023-08-08T06:31:42;10.80;99.90
11385;DHT22;5747;56.748;13.882;2023-08-08T06:34:11;10.80;99.90
11385;DHT22;5747;56.748;13.882;2023-08-08T06:36:39;10.80;99.90
11385;DHT22;5747;56.748;13.882;2023-08-08T06:39:07;10.80;99.90
11385;DHT22;5747;56.748;13.882;2023-08-08T06:41:35;10.90;99.90
11385;DHT22;5747;56.748;13.882;2023-08-08T06:44:07;10.80;99.90
11385;DHT22;5747;56.748;13.882;2023-08-08T06:46:35;10.90;99.90
11385;DHT22;5747;56.748;13.882;2023-08-08T06:49:04;10.90;99.90
11385;DHT22;5747;56.748;13.882;2023-08-08T06:51:33;11.00;99.90
11385;DHT22;5747;56.748;13.882;2023-08-08T06:54:02;11.00;99.90
11385;DHT22;5747;56.748;13.882;2023-08-08T06:56:30;11.00;99.90
11385;DHT22;5747;56.748;13.882;2023-08-08T06:58:58;11.00;99.90
11385;DHT22;5747;56.748;13.882;2023-08-08T07:01:27;11.00;99.90
11385;DHT22;5747;56.748;13.882;2023-08-08T07:03:55;11.10;99.90
11385;DHT22;5747;56.748;13.882;2023-08-08T07:06:25;11.00;99.90
11385;DHT22;5747;56.748;13.882;2023-08-08T07:08:54;11.20;99.90
11385;DHT22;5747;56.748;13.882;2023-08-08T07:11:22;11.10;99.90
11385;DHT22;5747;56.748;13.882;2023-08-08T07:13:51;11.00;99.90
11385;DHT22;5747;56.748;13.882;2023-08-08T07:16:19;10.90;99.90
11385;DHT22;5747;56.748;13.882;2023-08-08T07:18:48;10.80;99.90
11385;DHT22;5747;56.748;13.882;2023-08-08T07:21:19;10.80;99.90
11385;DHT22;5747;56.748;13.882;2023-08-08T07:23:48;10.90;99.90
11385;DHT22;5747;56.748;13.882;2023-08-08T07:26:17;11.00;99.90
11385;DHT22;5747;56.748;13.882;2023-08-08T07:28:45;11.20;99.90
11385;DHT22;5747;56.748;13.882;2023-08-08T07:31:13;11.30;99.90
11385;DHT22;5747;56.748;13.882;2023-08-08T07:33:41;11.20;99.90
11385;DHT22;5747;56.748;13.882;2023-08-08T07:36:09;11.30;99.90
11385;DHT22;5747;56.748;13.882;2023-08-08T07:38:37;11.40;99.90
11385;DHT22;5747;56.748;13.882;2023-08-08T07:41:07;11.40;99.90
11385;DHT22;5747;56.748;13.882;2023-08-08T07:43:35;11.40;99.90
11385;DHT22;5747;56.748;13.882;2023-08-08T07:46:03;11.30;99.90
11385;DHT22;5747;56.748;13.882;2023-08-08T07:48:31;11.40;99.90
11385;DHT22;5747;56.748;13.882;2023-08-08T07:50:59;11.40;99.90
11385;DHT22;5747;56.748;13.882;2023-08-08T07:53:28;11.40;99.90
11385;DHT22;5747;56.748;13.882;2023-08-08T07:55:56;11.50;99.90
11385;DHT22;5747;56.748;13.882;2023-08-08T07:58:25;11.40;99.90
11385;DHT22;5747;56.748;13.882;2023-08-08T08:00:54;11.50;99.90
11385;DHT22;5747;56.748;13.882;2023-08-08T08:03:23;11.40;99.90
11385;DHT22;5747;56.748;13.882;2023-08-08T08:05:51;11.60;99.90
11385;DHT22;5747;56.748;13.882;2023-08-08T08:08:20;11.60;99.90
11385;DHT22;5747;56.748;13.882;2023-08-08T08:10:48;11.60;99.90
11385;DHT22;5747;56.748;13.882;2023-08-08T08:13:17;11.60;99.90
11385;DHT22;5747;56.748;13.882;2023-08-08T08:15:47;11.50;99.90
11385;DHT22;5747;56.748;13.882;2023-08-08T08:18:15;11.70;99.90
11385;DHT22;5747;56.748;13.882;2023-08-08T08:20:45;11.90;99.90
11385;DHT22;5747;56.748;13.882;2023-08-08T08:23:14;12.20;99.90
11385;DHT22;5747;56.748;13.882;2023-08-08T08:25:42;12.30;99.90
11385;DHT22;5747;56.748;13.882;2023-08-08T08:28:10;12.20;99.90
11385;DHT22;5747;56.748;13.882;2023-08-08T08:30:38;12.10;99.90
11385;DHT22;5747;56.748;13.882;2023-08-08T08:33:07;12.20;99.90
11385;DHT22;5747;56.748;13.882;2023-08-08T08:35:36;12.40;99.90
11385;DHT22;5747;56.748;13.882;2023-08-08T08:38:04;12.50;99.90
11385;DHT22;5747;56.748;13.882;2023-08-08T08:40:41;12.50;99.90
11385;DHT22;5747;56.748;13.882;2023-08-08T08:43:11;12.50;99.90
11385;DHT22;5747;56.748;13.882;2023-08-08T08:45:43;12.30;99.90
11385;DHT22;5747;56.748;13.882;2023-08-08T08:48:13;12.30;99.90
11385;DHT22;5747;56.748;13.882;2023-08-08T08:50:47;12.20;99.90
11385;DHT22;5747;56.748;13.882;2023-08-08T08:53:16;12.10;99.90
11385;DHT22;5747;56.748;13.882;2023-08-08T08:55:45;12.20;99.90
11385;DHT22;5747;56.748;13.882;2023-08-08T08:58:14;12.20;99.90
11385;DHT22;5747;56.748;13.882;2023-08-08T09:00:44;12.20;99.90
11385;DHT22;5747;56.748;13.882;2023-08-08T09:03:15;12.30;99.90
11385;DHT22;5747;56.748;13.882;2023-08-08T09:05:44;12.60;99.90
11385;DHT22;5747;56.748;13.882;2023-08-08T09:08:13;12.80;99.90
11385;DHT22;5747;56.748;13.882;2023-08-08T09:10:42;12.70;99.90
11385;DHT22;5747;56.748;13.882;2023-08-08T09:13:10;12.60;99.90
11385;DHT22;5747;56.748;13.882;2023-08-08T09:15:38;12.40;99.90
11385;DHT22;5747;56.748;13.882;2023-08-08T09:18:07;12.20;99.90
11385;DHT22;5747;56.748;13.882;2023-08-08T09:20:36;12.30;99.90
11385;DHT22;5747;56.748;13.882;2023-08-08T09:23:05;12.40;99.90
11385;DHT22;5747;56.748;13.882;2023-08-08T09:25:33;12.50;99.90
11385;DHT22;5747;56.748;13.882;2023-08-08T09:28:01;12.30;99.90
11385;DHT22;5747;56.748;13.882;2023-08-08T09:30:30;12.30;99.90
11385;DHT22;5747;56.748;13.882;2023-08-08T09:33:00;12.40;99.90
11385;DHT22;5747;56.748;13.882;2023-08-08T09:35:29;12.30;99.90
11385;DHT22;5747;56.748;13.882;2023-08-08T09:37:59;12.60;99.90
11385;DHT22;5747;56.748;13.882;2023-08-08T09:40:27;12.50;99.90
11385;DHT22;5747;56.748;13.882;2023-08-08T09:42:57;12.20;99.90
11385;DHT22;5747;56.748;13.882;2023-08-08T09:45:26;12.30;99.90
11385;DHT22;5747;56.748;13.882;2023-08-08T09:47:54;12.20;99.90
11385;DHT22;5747;56.748;13.882;2023-08-08T09:50:22;12.00;99.90
11385;DHT22;5747;56.748;13.882;2023-08-08T09:52:52;11.70;99.90
11385;DHT22;5747;56.748;13.882;2023-08-08T09:55:23;11.60;99.90
11385;DHT22;5747;56.748;13.882;2023-08-08T09:57:52;11.70;99.90
11385;DHT22;5747;56.748;13.882;2023-08-08T10:00:21;11.80;99.90
11385;DHT22;5747;56.748;13.882;2023-08-08T10:02:51;11.70;99.90
11385;DHT22;5747;56.748;13.882;2023-08-08T10:05:20;11.60;99.90
11385;DHT22;5747;56.748;13.882;2023-08-08T10:07:49;11.70;99.90
11385;DHT22;5747;56.748;13.882;2023-08-08T10:10:17;11.70;99.90
11385;DHT22;5747;56.748;13.882;2023-08-08T10:12:49;11.80;99.90
11385;DHT22;5747;56.748;13.882;2023-08-08T10:15:17;11.60;99.90
11385;DHT22;5747;56.748;13.882;2023-08-08T10:17:45;11.50;99.90
11385;DHT22;5747;56.748;13.882;2023-08-08T10:20:14;11.50;99.90
11385;DHT22;5747;56.748;13.882;2023-08-08T10:22:48;11.50;99.90
11385;DHT22;5747;56.748;13.882;2023-08-08T10:25:18;11.60;99.90
11385;DHT22;5747;56.748;13.882;2023-08-08T10:27:48;11.70;99.90
11385;DHT22;5747;56.748;13.882;2023-08-08T10:30:17;11.60;99.90
11385;DHT22;5747;56.748;13.882;2023-08-08T10:32:45;11.70;99.90
11385;DHT22;5747;56.748;13.882;2023-08-08T10:35:14;11.70;99.90
11385;DHT22;5747;56.748;13.882;2023-08-08T10:37:52;11.70;99.90
11385;DHT22;5747;56.748;13.882;2023-08-08T10:40:21;11.70;99.90
11385;DHT22;5747;56.748;13.882;2023-08-08T10:42:52;11.80;99.90
11385;DHT22;5747;56.748;13.882;2023-08-08T10:45:20;11.90;99.90
11385;DHT22;5747;56.748;13.882;2023-08-08T10:47:48;11.80;99.90
11385;DHT22;5747;56.748;13.882;2023-08-08T10:50:22;11.50;99.90
11385;DHT22;5747;56.748;13.882;2023-08-08T10:52:52;11.40;99.90
11385;DHT22;5747;56.748;13.882;2023-08-08T10:55:22;11.30;99.90
11385;DHT22;5747;56.748;13.882;2023-08-08T10:57:57;11.50;99.90
11385;DHT22;5747;56.748;13.882;2023-08-08T11:00:27;11.80;99.90
11385;DHT22;5747;56.748;13.882;2023-08-08T11:02:57;11.60;99.90
11385;DHT22;5747;56.748;13.882;2023-08-08T11:05:28;11.60;99.90
11385;DHT22;5747;56.748;13.882;2023-08-08T11:07:57;11.60;99.90
11385;DHT22;5747;56.748;13.882;2023-08-08T11:10:25;11.60;99.90
11385;DHT22;5747;56.748;13.882;2023-08-08T11:13:00;11.60;99.90
11385;DHT22;5747;56.748;13.882;2023-08-08T11:15:31;11.80;99.90
11385;DHT22;5747;56.748;13.882;2023-08-08T11:18:00;11.80;99.90
11385;DHT22;5747;56.748;13.882;2023-08-08T11:20:30;11.80;99.90
11385;DHT22;5747;56.748;13.882;2023-08-08T11:23:00;11.90;99.90
11385;DHT22;5747;56.748;13.882;2023-08-08T11:25:29;11.80;99.90
11385;DHT22;5747;56.748;13.882;2023-08-08T11:27:59;11.60;99.90
11385;DHT22;5747;56.748;13.882;2023-08-08T11:30:29;11.60;99.90
11385;DHT22;5747;56.748;13.882;2023-08-08T11:32:57;11.50;99.90
11385;DHT22;5747;56.748;13.882;2023-08-08T11:35:28;11.40;99.90
11385;DHT22;5747;56.748;13.882;2023-08-08T11:37:58;11.20;99.90
11385;DHT22;5747;56.748;13.882;2023-08-08T11:40:28;11.30;99.90
11385;DHT22;5747;56.748;13.882;2023-08-08T11:42:58;11.30;99.90
11385;DHT22;5747;56.748;13.882;2023-08-08T11:45:27;11.30;99.90
11385;DHT22;5747;56.748;13.882;2023-08-08T11:47:56;11.40;99.90
11385;DHT22;5747;56.748;13.882;2023-08-08T11:50:25;11.60;99.90
11385;DHT22;5747;56.748;13.882;2023-08-08T11:52:55;11.80;99.90
11385;DHT22;5747;56.748;13.882;2023-08-08T11:55:27;11.80;99.90
11385;DHT22;5747;56.748;13.882;2023-08-08T11:57:56;12.00;99.90
11385;DHT22;5747;56.748;13.882;2023-08-08T12:00:29;12.10;99.90
11385;DHT22;5747;56.748;13.882;2023-08-08T12:02:59;12.20;99.90
11385;DHT22;5747;56.748;13.882;2023-08-08T12:05:28;12.10;99.90
11385;DHT22;5747;56.748;13.882;2023-08-08T12:07:58;11.90;99.90
11385;DHT22;5747;56.748;13.882;2023-08-08T12:10:26;11.90;99.90
11385;DHT22;5747;56.748;13.882;2023-08-08T12:12:57;12.10;99.90
11385;DHT22;5747;56.748;13.882;2023-08-08T12:15:32;12.10;99.90
11385;DHT22;5747;56.748;13.882;2023-08-08T12:18:02;12.00;99.90
11385;DHT22;5747;56.748;13.882;2023-08-08T12:20:31;11.90;99.90
11385;DHT22;5747;56.748;13.882;2023-08-08T12:23:00;11.90;99.90
11385;DHT22;5747;56.748;13.882;2023-08-08T12:25:28;11.80;99.90
11385;DHT22;5747;56.748;13.882;2023-08-08T12:27:56;11.70;99.90
11385;DHT22;5747;56.748;13.882;2023-08-08T12:30:24;11.90;99.90
11385;DHT22;5747;56.748;13.882;2023-08-08T12:32:54;12.00;99.90
11385;DHT22;5747;56.748;13.882;2023-08-08T12:35:22;11.90;99.90
11385;DHT22;5747;56.748;13.882;2023-08-08T12:37:53;11.80;99.90
11385;DHT22;5747;56.748;13.882;2023-08-08T12:40:21;11.90;99.90
11385;DHT22;5747;56.748;13.882;2023-08-08T12:42:49;12.00;99.90
11385;DHT22;5747;56.748;13.882;2023-08-08T12:45:17;11.90;99.90
11385;DHT22;5747;56.748;13.882;2023-08-08T12:47:46;11.90;99.90
11385;DHT22;5747;56.748;13.882;2023-08-08T12:50:15;11.90;99.90
11385;DHT22;5747;56.748;13.882;2023-08-08T12:52:44;11.90;99.90
11385;DHT22;5747;56.748;13.882;2023-08-08T12:55:12;11.90;99.90
11385;DHT22;5747;56.748;13.882;2023-08-08T12:57:43;11.90;99.90
11385;DHT22;5747;56.748;13.882;2023-08-08T13:00:13;12.00;99.90
11385;DHT22;5747;56.748;13.882;2023-08-08T13:02:41;12.10;99.90
11385;DHT22;5747;56.748;13.882;2023-08-08T13:05:09;12.30;99.90
11385;DHT22;5747;56.748;13.882;2023-08-08T13:07:39;12.70;99.90
11385;DHT22;5747;56.748;13.882;2023-08-08T13:10:08;13.20;99.90
11385;DHT22;5747;56.748;13.882;2023-08-08T13:12:37;13.20;99.90
11385;DHT22;5747;56.748;13.882;2023-08-08T13:15:06;13.40;99.90
11385;DHT22;5747;56.748;13.882;2023-08-08T13:17:35;13.40;99.90
11385;DHT22;5747;56.748;13.882;2023-08-08T13:20:04;13.40;99.90
11385;DHT22;5747;56.748;13.882;2023-08-08T13:22:34;13.40;99.90
11385;DHT22;5747;56.748;13.882;2023-08-08T13:25:04;13.30;99.90
11385;DHT22;5747;56.748;13.882;2023-08-08T13:27:33;13.40;99.90
11385;DHT22;5747;56.748;13.882;2023-08-08T13:30:01;13.30;99.90
11385;DHT22;5747;56.748;13.882;2023-08-08T13:32:29;13.40;99.90
11385;DHT22;5747;56.748;13.882;2023-08-08T13:34:57;13.40;99.90
11385;DHT22;5747;56.748;13.882;2023-08-08T13:37:26;13.30;99.90
11385;DHT22;5747;56.748;13.882;2023-08-08T13:39:54;13.30;99.90
11385;DHT22;5747;56.748;13.882;2023-08-08T13:42:23;13.40;99.90
11385;DHT22;5747;56.748;13.882;2023-08-08T13:44:51;13.60;99.90
11385;DHT22;5747;56.748;13.882;2023-08-08T13:47:21;13.50;99.90
11385;DHT22;5747;56.748;13.882;2023-08-08T13:49:49;13.60;99.90
11385;DHT22;5747;56.748;13.882;2023-08-08T13:52:17;13.90;99.90
11385;DHT22;5747;56.748;13.882;2023-08-08T13:54:45;13.80;99.90
11385;DHT22;5747;56.748;13.882;2023-08-08T13:57:13;13.60;99.90
11385;DHT22;5747;56.748;13.882;2023-08-08T13:59:44;13.40;99.90
11385;DHT22;5747;56.748;13.882;2023-08-08T14:02:13;13.20;99.90
11385;DHT22;5747;56.748;13.882;2023-08-08T14:04:46;13.00;99.90
11385;DHT22;5747;56.748;13.882;2023-08-08T14:07:15;12.70;99.90
11385;DHT22;5747;56.748;13.882;2023-08-08T14:09:49;12.80;99.90
11385;DHT22;5747;56.748;13.882;2023-08-08T14:12:26;13.00;99.90
11385;DHT22;5747;56.748;13.882;2023-08-08T14:15:05;13.10;99.90
11385;DHT22;5747;56.748;13.882;2023-08-08T14:17:34;13.60;99.90
11385;DHT22;5747;56.748;13.882;2023-08-08T14:20:04;13.60;99.90
11385;DHT22;5747;56.748;13.882;2023-08-08T14:22:35;13.80;99.90
11385;DHT22;5747;56.748;13.882;2023-08-08T14:25:08;13.80;99.90
11385;DHT22;5747;56.748;13.882;2023-08-08T14:27:42;13.80;99.90
11385;DHT22;5747;56.748;13.882;2023-08-08T14:30:15;13.90;99.90
11385;DHT22;5747;56.748;13.882;2023-08-08T14:32:46;13.70;99.90
11385;DHT22;5747;56.748;13.882;2023-08-08T14:35:19;13.70;99.90
11385;DHT22;5747;56.748;13.882;2023-08-08T14:37:49;13.30;99.90
11385;DHT22;5747;56.748;13.882;2023-08-08T14:40:21;12.60;99.90
11385;DHT22;5747;56.748;13.882;2023-08-08T14:42:57;12.40;99.90
11385;DHT22;5747;56.748;13.882;2023-08-08T14:45:30;12.40;99.90
11385;DHT22;5747;56.748;13.882;2023-08-08T14:47:59;12.60;99.90
11385;DHT22;5747;56.748;13.882;2023-08-08T14:50:29;12.80;99.90
11385;DHT22;5747;56.748;13.882;2023-08-08T14:53:04;12.90;99.90
11385;DHT22;5747;56.748;13.882;2023-08-08T14:55:34;12.90;99.90
11385;DHT22;5747;56.748;13.882;2023-08-08T14:58:10;12.90;99.90
11385;DHT22;5747;56.748;13.882;2023-08-08T15:00:41;12.60;99.90
11385;DHT22;5747;56.748;13.882;2023-08-08T15:03:09;12.20;99.90
11385;DHT22;5747;56.748;13.882;2023-08-08T15:05:38;11.90;99.90
11385;DHT22;5747;56.748;13.882;2023-08-08T15:08:07;11.90;99.90
11385;DHT22;5747;56.748;13.882;2023-08-08T15:10:36;11.90;99.90
11385;DHT22;5747;56.748;13.882;2023-08-08T15:13:04;12.00;99.90
11385;DHT22;5747;56.748;13.882;2023-08-08T15:15:33;12.20;99.90
11385;DHT22;5747;56.748;13.882;2023-08-08T15:18:03;12.20;99.90
11385;DHT22;5747;56.748;13.882;2023-08-08T15:20:31;12.20;99.90
11385;DHT22;5747;56.748;13.882;2023-08-08T15:22:59;12.10;99.90
11385;DHT22;5747;56.748;13.882;2023-08-08T15:25:27;12.20;99.90
11385;DHT22;5747;56.748;13.882;2023-08-08T15:27:55;12.20;99.90
11385;DHT22;5747;56.748;13.882;2023-08-08T15:30:24;12.10;99.90
11385;DHT22;5747;56.748;13.882;2023-08-08T15:32:52;12.00;99.90
11385;DHT22;5747;56.748;13.882;2023-08-08T15:35:21;12.00;99.90
11385;DHT22;5747;56.748;13.882;2023-08-08T15:37:52;12.30;99.90
11385;DHT22;5747;56.748;13.882;2023-08-08T15:40:20;12.30;99.90
11385;DHT22;5747;56.748;13.882;2023-08-08T15:42:49;12.30;99.90